Hovedside
METAR-TAF:

METAR-TAF

Lufthavner :

Ventspils, Latvia

breddegrad: 57-21-28N, lengdegrad: 021-32-39E, høyde over havet: 6 m

Gjeldene værobservasjon

Denne rapporten ble laget for 10 minutter siden, klokken 03:50 UTC
Vind 7 kt fra Sør-sørøst
Temperatur -1°C
Luftfuktighet 93%
Trykk 1020 hPa
Sikt 10 km eller mer
Overskyet i en høyde av 1100 ft

METAR: EVVA 170350Z AUTO 15007KT 9999 OVC011 M01/M02 Q1020

Tid: 06:00 (04:00 UTC)


TAF: fraværende

Værobservasjoner og værvarsel for over 4000 flyplasser (METAR- og TAF-rapporter).

Tilgjengelige stasjoner er representert av de røde og gule prikkene på kartet.

Hold musepekeren over prikken for å se navnet på stasjonen.

Klikk så for å se værobservasjoner og -varsler.

For å forandre kartet kan du klikke på den grønne knappen med svart kryss for å zoome inn, på den grønne knappen med strek for å zoome ut, eller på de grønne pilene for å se tilstøtende kart.


METAR-TAF: